Lanai City, HI

3:40 PM HST on September 23, 2017 (GMT -1000)
Lanai City

Weather History for PHNY - June, 2013

Change the Weather History Date:

Tuesday, June 25, 2013

  Actual Average Record
Temperature  
Mean Temperature 72 °F -  
Max Temperature 77 °F 82 °F 85 °F (1993)
Min Temperature 68 °F 65 °F 59 °F (1951)
Cooling Degree Days 8    
Growing Degree Days 22 (Base 50)    
Moisture  
Dew Point 69 °F    
Average Humidity 91    
Maximum Humidity 100    
Minimum Humidity 71    
Precipitation  
Precipitation 0.01 in - - ()
Sea Level Pressure  
Sea Level Pressure 30.09 in    
Wind  
Wind Speed 10 mph (NE)    
Max Wind Speed 16 mph    
Max Gust Speed 21 mph    
Visibility 6 miles    
Events Rain    
Averages and records for this station are not official NWS values.
T = Trace of Precipitation, MM = Missing Value Source: NWS Daily Summary

Daily Weather History Graph

Daily Weather History Graph

Search for Another Location

Airport or City:

Trip Planner

Search our weather history database for the weather conditions in past years. The results will help you decide how hot, cold, wet, or windy it might be!

Date:

Astronomy

Jun. 25, 2013 Rise Set
Actual Time 5:48 AM HST 7:12 PM HST
Civil Twilight 5:24 AM HST 7:37 PM HST
Nautical Twilight 4:54 AM HST 8:06 PM HST
Astronomical Twilight 4:24 AM HST 8:37 PM HST
Moon 9:31 PM HST (6/25) 8:21 AM HST (6/25)
Length of Visible Light 14h 12m
Length of Day
13h 23m
Waning Gibbous, 91% of the Moon is Illuminated
Jun 25
Waning Gibbous
Jun 29
Last Quarter
Jul 7
New
Jul 15
First Quarter
Jul 22
Full

Hourly Weather History & Observations

Time (HST) Temp. Dew Point Humidity Pressure Visibility Wind Dir Wind Speed Gust Speed Precip Events Conditions
12:56 AM 68.0 °F 65.8 °F 93% 30.06 in 10.0 mi NE 12.7 mph - N/A   Partly Cloudy
1:56 AM 68.0 °F 64.9 °F 90% 30.05 in 10.0 mi ENE 10.4 mph - N/A   Clear
2:56 AM 68.0 °F 64.9 °F 90% 30.04 in 10.0 mi NNE 10.4 mph - N/A   Clear
3:56 AM 68.9 °F 65.8 °F 90% 30.03 in 10.0 mi NNE 8.1 mph - N/A   Overcast
4:56 AM 68.9 °F 65.8 °F 90% 30.04 in 10.0 mi NNE 8.1 mph - N/A   Mostly Cloudy
5:56 AM 68.9 °F 64.9 °F 87% 30.05 in 10.0 mi NNE 8.1 mph - N/A   Mostly Cloudy
6:13 AM 69.8 °F 64.4 °F 83% 30.11 in 3.0 mi NNE 6.9 mph - 0.00 in Rain Rain
6:35 AM 68.0 °F 66.2 °F 94% 30.12 in 2.5 mi North 4.6 mph - 0.00 in Rain Light Rain
6:43 AM 68.0 °F 66.2 °F 94% 30.12 in 3.0 mi North 5.8 mph - 0.00 in Rain Light Rain
6:56 AM 68.0 °F 66.9 °F 96% 30.07 in 10.0 mi North 4.6 mph - 0.00 in Rain Light Rain
7:10 AM 69.8 °F 68.0 °F 94% 30.13 in 10.0 mi North 4.6 mph - 0.00 in   Mostly Cloudy
7:56 AM 73.9 °F 65.8 °F 76% 30.07 in 10.0 mi NNE 4.6 mph - 0.00 in   Clear
8:56 AM 77.9 °F 68.0 °F 71% 30.07 in 10.0 mi NNE 10.4 mph - N/A   Scattered Clouds
9:05 AM 75.2 °F 66.2 °F 73% 30.13 in 10.0 mi NNE 9.2 mph - N/A   Mostly Cloudy
9:56 AM 73.9 °F 66.9 °F 79% 30.08 in 10.0 mi NE 12.7 mph - 0.00 in   Overcast
10:30 AM 73.4 °F 69.8 °F 88% 30.13 in 2.5 mi NNE 10.4 mph - 0.00 in Rain Heavy Rain
10:45 AM 73.4 °F 69.8 °F 88% 30.14 in 10.0 mi NE 4.6 mph - 0.00 in Rain Light Rain
10:56 AM 71.6 °F 69.8 °F 94% 30.13 in 0.8 mi NE 10.4 mph - N/A Rain Heavy Rain
11:06 AM 71.6 °F 69.8 °F 94% 30.13 in 1.0 mi NE 12.7 mph - 0.00 in Rain Heavy Rain
11:16 AM 71.6 °F 69.8 °F 94% 30.13 in 1.5 mi Variable 6.9 mph - 0.00 in Rain Light Rain
11:19 AM 73.4 °F 71.6 °F 94% 30.13 in 4.0 mi NNE 11.5 mph - 0.00 in Rain Rain
11:56 AM 73.9 °F 70.9 °F 90% 30.06 in 3.0 mi NNE 9.2 mph - 0.00 in Rain Light Rain
11:58 AM 73.4 °F 71.6 °F 94% 30.12 in 2.5 mi NNE 8.1 mph - 0.00 in Rain Light Rain
12:05 PM 73.4 °F 71.6 °F 94% 30.12 in 5.0 mi NE 11.5 mph - 0.00 in Rain Light Rain
12:43 PM 75.2 °F 69.8 °F 83% 30.11 in 10.0 mi NE 5.8 mph - 0.00 in   Mostly Cloudy
12:56 PM 77.0 °F 68.9 °F 76% 30.05 in 10.0 mi NNE 5.8 mph - 0.00 in   Mostly Cloudy
1:07 PM 75.2 °F 69.8 °F 83% 30.11 in 10.0 mi NNE 10.4 mph - 0.00 in   Mostly Cloudy
1:16 PM 73.4 °F 69.8 °F 88% 30.11 in 2.0 mi NE 11.5 mph - 0.00 in Rain Heavy Rain
1:18 PM 73.4 °F 69.8 °F 88% 30.11 in 1.2 mi NE 10.4 mph - 0.00 in Rain Heavy Rain
1:22 PM 73.4 °F 69.8 °F 88% 30.11 in 0.8 mi NE 12.7 mph 17.3 mph 0.00 in Rain Heavy Rain
1:29 PM 71.6 °F 69.8 °F 94% 30.11 in 1.2 mi NE 13.8 mph - 0.00 in Rain Heavy Rain
1:33 PM 71.6 °F 69.8 °F 94% 30.11 in 1.5 mi NE 10.4 mph - 0.00 in Rain Heavy Rain
1:39 PM 73.4 °F 71.6 °F 94% 30.11 in 3.0 mi NE 11.5 mph 18.4 mph 0.00 in Rain Rain
1:56 PM 73.4 °F 71.6 °F 94% 30.10 in 3.0 mi ENE 10.4 mph - N/A Rain Rain
2:02 PM 73.4 °F 71.6 °F 94% 30.10 in 1.8 mi East 6.9 mph - 0.00 in Rain Light Rain
2:09 PM 73.4 °F 71.6 °F 94% 30.10 in 2.5 mi East 4.6 mph - 0.00 in Rain Light Rain
2:16 PM 73.4 °F 71.6 °F 94% 30.09 in 10.0 mi Variable 6.9 mph - 0.00 in Rain Light Rain
2:49 PM 73.4 °F 69.8 °F 88% 30.09 in 10.0 mi NE 15.0 mph - 0.00 in Rain Light Rain
2:56 PM 73.9 °F 68.9 °F 84% 30.03 in 10.0 mi NE 15.0 mph - 0.00 in Rain Light Rain
3:56 PM 72.9 °F 70.0 °F 91% 30.02 in 5.0 mi NNE 13.8 mph - 0.00 in Rain Light Rain
4:01 PM 73.4 °F 69.8 °F 88% 30.08 in 1.5 mi NNE 13.8 mph - 0.00 in Rain Heavy Rain
4:03 PM 71.6 °F 69.8 °F 94% 30.08 in 1.2 mi NNE 13.8 mph - 0.00 in Rain Heavy Rain
4:11 PM 71.6 °F 69.8 °F 94% 30.08 in 2.0 mi NNE 13.8 mph - 0.00 in Rain Light Rain
4:17 PM 71.6 °F 69.8 °F 94% 30.07 in 6.0 mi NNE 15.0 mph 20.7 mph 0.00 in Rain Light Rain
4:26 PM 71.6 °F 69.8 °F 94% 30.07 in 8.0 mi NE 16.1 mph - 0.00 in Rain Light Rain
4:56 PM 73.4 °F 69.8 °F 88% 30.08 in 3.0 mi NE 15.0 mph - N/A Rain Light Rain
4:58 PM 71.6 °F 69.8 °F 94% 30.08 in 2.5 mi NE 16.1 mph - 0.00 in Rain Light Rain
5:21 PM 71.6 °F 69.8 °F 94% 30.08 in 3.0 mi NE 13.8 mph - 0.00 in Rain Light Rain
5:30 PM 71.6 °F 69.8 °F 94% 30.08 in 6.0 mi NE 15.0 mph - 0.00 in Rain Light Rain
5:45 PM 71.6 °F 69.8 °F 94% 30.08 in 2.5 mi NE 13.8 mph - 0.00 in Rain Light Rain
5:47 PM 71.6 °F 69.8 °F 94% 30.08 in 4.0 mi NE 15.0 mph - 0.00 in Rain Light Rain
5:56 PM 70.9 °F 70.0 °F 97% 30.04 in 10.0 mi NE 12.7 mph - 0.00 in Rain Light Rain
6:03 PM 71.6 °F 69.8 °F 94% 30.08 in 5.0 mi NE 12.7 mph - 0.00 in Rain Light Rain
6:22 PM 71.6 °F 69.8 °F 94% 30.09 in 10.0 mi NE 10.4 mph - 0.00 in   Mostly Cloudy
6:56 PM 70.0 °F 68.9 °F 96% 30.05 in 10.0 mi NNE 15.0 mph - 0.00 in   Overcast
7:24 PM 69.8 °F 69.8 °F 100% 30.10 in 4.0 mi NNE 15.0 mph - 0.00 in Rain Light Rain
7:40 PM 69.8 °F 69.8 °F 100% 30.10 in 2.5 mi NE 15.0 mph - 0.00 in Rain Light Rain
7:46 PM 69.8 °F 69.8 °F 100% 30.10 in 5.0 mi NE 13.8 mph - 0.00 in Rain Light Rain
7:56 PM 69.8 °F 69.8 °F 100% 30.11 in 10.0 mi ENE 13.8 mph - N/A Rain Light Rain
8:56 PM 70.0 °F 68.0 °F 93% 30.06 in 10.0 mi NE 15.0 mph - 0.01 in   Mostly Cloudy
9:56 PM 70.0 °F 66.9 °F 90% 30.08 in 10.0 mi ENE 8.1 mph - 0.00 in Rain Light Rain
10:56 PM 70.0 °F 66.9 °F 90% 30.09 in 10.0 mi ENE 10.4 mph - 0.00 in   Partly Cloudy
11:37 PM 69.8 °F 69.8 °F 100% 30.14 in 10.0 mi NE 6.9 mph - N/A   Mostly Cloudy
11:56 PM 68.9 °F 68.0 °F 97% 30.08 in 10.0 mi NE 5.8 mph - N/A   Mostly Cloudy